createdAt,value
2019-01-21T00:00:23.707Z,39.90
2019-01-21T00:03:01.270Z,38.78
2019-01-21T00:05:30.012Z,43.30
2019-01-21T00:07:58.827Z,39.48
2019-01-21T00:10:27.428Z,37.05
2019-01-21T00:12:56.138Z,36.00
2019-01-21T00:15:24.874Z,38.35
2019-01-21T00:17:53.612Z,38.45
2019-01-21T00:20:22.258Z,37.58
2019-01-21T00:22:50.930Z,38.80
2019-01-21T00:25:19.502Z,43.68
2019-01-21T00:27:48.185Z,41.37
2019-01-21T00:30:16.824Z,40.10
2019-01-21T00:32:45.426Z,39.48
2019-01-21T00:35:14.149Z,42.13
2019-01-21T00:37:42.820Z,38.85
2019-01-21T00:40:16.838Z,38.78
2019-01-21T00:42:45.566Z,39.95
2019-01-21T00:45:15.079Z,37.48
2019-01-21T00:47:43.684Z,41.68
2019-01-21T00:50:14.098Z,40.28
2019-01-21T00:52:42.778Z,39.25
2019-01-21T00:55:13.305Z,39.98
2019-01-21T00:57:42.250Z,39.42
2019-01-21T01:00:20.090Z,35.20
2019-01-21T01:02:48.834Z,42.80
2019-01-21T01:05:18.349Z,39.35
2019-01-21T01:07:47.078Z,43.25
2019-01-21T01:10:15.895Z,42.53
2019-01-21T01:12:44.570Z,38.73
2019-01-21T01:15:15.152Z,35.40
2019-01-21T01:17:43.830Z,38.63
2019-01-21T01:20:14.538Z,43.98
2019-01-21T01:22:43.285Z,41.48
2019-01-21T01:25:12.079Z,44.05
2019-01-21T01:27:40.882Z,44.90
2019-01-21T01:30:15.091Z,40.48
2019-01-21T01:32:43.772Z,46.53
2019-01-21T01:35:14.614Z,40.90
2019-01-21T01:37:44.354Z,42.43
2019-01-21T01:40:17.637Z,43.75
2019-01-21T01:42:47.235Z,42.62
2019-01-21T01:45:18.954Z,41.75
2019-01-21T01:47:47.775Z,38.85
2019-01-21T01:50:16.415Z,39.65
2019-01-21T01:52:45.262Z,34.45
2019-01-21T01:55:14.327Z,34.58
2019-01-21T01:57:42.967Z,34.98
2019-01-21T02:00:14.323Z,36.23
2019-01-21T02:02:43.190Z,38.90
2019-01-21T02:05:12.508Z,42.15
2019-01-21T02:07:41.239Z,43.25
2019-01-21T02:10:12.211Z,42.38
2019-01-21T02:12:40.999Z,39.73
2019-01-21T02:15:14.790Z,37.58
2019-01-21T02:17:43.543Z,39.95
2019-01-21T02:20:15.303Z,45.33
2019-01-21T02:22:45.933Z,39.70
2019-01-21T02:25:14.992Z,40.65
2019-01-21T02:28:21.795Z,35.35
2019-01-21T02:34:32.035Z,40.28
2019-01-21T02:37:06.428Z,38.85
2019-01-21T02:39:54.928Z,42.83
2019-01-21T02:42:44.831Z,34.70
2019-01-21T02:45:31.180Z,35.80
2019-01-21T02:48:18.212Z,36.03
2019-01-21T02:51:04.959Z,35.50
2019-01-21T02:53:37.219Z,32.38
2019-01-21T02:56:36.899Z,36.95
2019-01-21T02:59:31.345Z,35.48
2019-01-21T03:02:20.764Z,33.98
2019-01-21T03:05:10.583Z,30.62
2019-01-21T03:08:12.766Z,30.50
2019-01-21T03:11:14.077Z,30.45
2019-01-21T03:13:48.734Z,32.58
2019-01-21T03:16:36.726Z,30.52
2019-01-21T03:19:20.475Z,30.57
2019-01-21T03:22:14.072Z,34.13
2019-01-21T03:24:57.797Z,31.33
2019-01-21T03:27:50.193Z,29.15
2019-01-21T03:30:36.871Z,28.85
2019-01-21T03:33:40.434Z,33.88
2019-01-21T03:36:17.586Z,33.25
2019-01-21T03:39:08.672Z,33.00
2019-01-21T03:41:40.414Z,34.58
2019-01-21T03:44:14.683Z,31.05
2019-01-21T03:47:07.124Z,31.62
2019-01-21T03:49:53.944Z,30.70
2019-01-21T03:52:40.783Z,35.78
2019-01-21T03:55:12.806Z,31.68
2019-01-21T03:57:47.279Z,28.52
2019-01-21T04:00:21.455Z,30.08
2019-01-21T04:02:53.137Z,29.75
2019-01-21T04:05:33.690Z,29.45
2019-01-21T04:08:23.142Z,30.12
2019-01-21T04:11:17.646Z,33.05
2019-01-21T04:13:54.895Z,31.77
2019-01-21T04:16:51.417Z,33.50
2019-01-21T04:19:37.990Z,28.17
2019-01-21T04:22:12.340Z,31.42
2019-01-21T04:24:58.799Z,27.40
2019-01-21T04:27:52.164Z,27.10
2019-01-21T04:30:26.495Z,31.65
2019-01-21T04:33:03.089Z,29.65
2019-01-21T04:35:57.394Z,34.50
2019-01-21T04:38:29.046Z,35.52
2019-01-21T04:41:28.980Z,36.90
2019-01-21T04:44:03.245Z,35.17
2019-01-21T04:46:53.043Z,33.05
2019-01-21T04:49:27.362Z,34.35
2019-01-21T04:57:52.117Z,37.53
2019-01-21T05:00:29.433Z,37.30
2019-01-21T05:03:20.302Z,40.65
2019-01-21T05:06:15.574Z,33.58
2019-01-21T05:09:01.927Z,32.35
2019-01-21T05:12:06.914Z,33.30
2019-01-21T05:14:47.780Z,33.35
2019-01-21T05:17:39.812Z,34.50
2019-01-21T05:20:11.481Z,36.55
2019-01-21T05:22:46.833Z,35.28
2019-01-21T05:25:19.105Z,32.10
2019-01-21T05:28:07.851Z,37.38
2019-01-21T05:30:42.306Z,35.40
2019-01-21T05:33:45.096Z,31.52
2019-01-21T05:36:16.747Z,34.65
2019-01-21T05:38:54.407Z,32.33
2019-01-21T05:41:32.049Z,31.87
2019-01-21T05:44:28.172Z,37.53
2019-01-21T05:47:45.950Z,36.58
2019-01-21T05:50:52.121Z,34.78
2019-01-21T05:53:46.220Z,36.53
2019-01-21T05:56:23.489Z,35.00
2019-01-21T05:59:37.987Z,33.53
2019-01-21T06:02:20.942Z,35.05
2019-01-21T06:05:13.531Z,32.42
2019-01-21T06:08:10.321Z,35.38
2019-01-21T06:11:09.816Z,37.25
2019-01-21T06:14:11.266Z,38.65
2019-01-21T06:16:45.753Z,36.48
2019-01-21T06:19:41.390Z,35.38
2019-01-21T06:22:13.067Z,33.30
2019-01-21T06:24:53.244Z,38.30
2019-01-21T06:27:28.349Z,32.63
2019-01-21T06:30:20.499Z,31.48
2019-01-21T06:33:10.311Z,38.20
2019-01-21T06:36:02.459Z,38.02
2019-01-21T06:39:06.082Z,38.45
2019-01-21T06:41:40.609Z,37.88
2019-01-21T06:44:24.101Z,34.35
2019-01-21T06:47:13.889Z,39.03
2019-01-21T06:50:09.130Z,51.33
2019-01-21T06:52:58.562Z,45.15
2019-01-21T06:55:38.880Z,52.03
2019-01-21T06:58:34.641Z,42.15
2019-01-21T07:01:24.342Z,37.90
2019-01-21T07:04:12.474Z,42.10
2019-01-21T07:06:44.153Z,37.90
2019-01-21T07:09:30.825Z,37.03
2019-01-21T07:12:14.544Z,36.93
2019-01-21T07:15:17.171Z,39.98
2019-01-21T07:18:05.891Z,44.88
2019-01-21T07:20:40.504Z,42.88
2019-01-21T07:23:49.421Z,39.63
2019-01-21T07:26:21.069Z,34.63
2019-01-21T07:29:10.662Z,35.70
2019-01-21T07:31:42.313Z,35.70
2019-01-21T07:34:33.654Z,40.58
2019-01-21T07:37:11.550Z,41.92
2019-01-21T07:39:49.029Z,41.33
2019-01-21T07:42:26.717Z,37.55
2019-01-21T07:45:22.217Z,35.28
2019-01-21T07:48:19.574Z,43.05
2019-01-21T07:51:15.337Z,40.30
2019-01-21T07:53:52.900Z,35.03
2019-01-21T07:56:30.588Z,34.75
2019-01-21T07:59:32.247Z,34.30
2019-01-21T08:02:27.671Z,35.28
2019-01-21T08:05:11.122Z,33.88
2019-01-21T08:07:45.751Z,37.10
2019-01-21T08:10:41.272Z,37.75
2019-01-21T08:13:37.430Z,34.05
2019-01-21T08:16:11.913Z,33.90
2019-01-21T08:18:48.919Z,36.95
2019-01-21T08:21:44.425Z,36.75
2019-01-21T08:24:35.501Z,40.45
2019-01-21T08:27:22.227Z,36.30
2019-01-21T08:29:56.889Z,35.98
2019-01-21T08:32:52.344Z,32.93
2019-01-21T08:35:24.109Z,32.98
2019-01-21T08:38:15.530Z,30.43
2019-01-21T08:41:14.537Z,29.63
2019-01-21T08:44:05.618Z,31.57
2019-01-21T08:46:42.889Z,28.40
2019-01-21T08:49:32.478Z,29.33
2019-01-21T08:52:28.310Z,30.43
2019-01-21T08:55:22.614Z,26.23
2019-01-21T08:58:29.001Z,26.37
2019-01-21T09:01:27.217Z,27.93
2019-01-21T09:04:04.713Z,23.90
2019-01-21T09:07:03.414Z,28.00
2019-01-21T09:09:43.723Z,26.83
2019-01-21T09:12:33.185Z,26.80
2019-01-21T09:15:23.037Z,27.40
2019-01-21T09:18:21.731Z,28.33
2019-01-21T09:21:18.961Z,26.37
2019-01-21T09:24:05.766Z,26.23
2019-01-21T09:26:43.225Z,24.87
2019-01-21T09:29:29.604Z,24.60
2019-01-21T09:32:15.882Z,24.53
2019-01-21T09:34:50.350Z,23.67
2019-01-21T09:37:36.961Z,24.30
2019-01-21T09:40:22.846Z,24.73
2019-01-21T09:43:00.268Z,24.03
2019-01-21T09:45:54.317Z,24.57
2019-01-21T09:48:21.809Z,22.77
2019-01-21T09:50:50.848Z,22.27
2019-01-21T09:53:19.564Z,21.83
2019-01-21T09:55:50.274Z,22.00
2019-01-21T09:58:21.945Z,21.10
2019-01-21T10:00:50.646Z,23.97
2019-01-21T10:03:19.977Z,20.63
2019-01-21T10:05:51.614Z,21.17
2019-01-21T10:08:29.173Z,21.93
2019-01-21T10:11:20.623Z,22.50
2019-01-21T10:13:57.858Z,19.70
2019-01-21T10:16:38.321Z,19.33
2019-01-21T10:19:27.301Z,22.07
2019-01-21T10:22:17.052Z,19.47
2019-01-21T10:25:11.223Z,21.07
2019-01-21T10:27:57.910Z,21.43
2019-01-21T10:30:29.538Z,19.97
2019-01-21T10:33:07.183Z,19.80
2019-01-21T10:35:59.675Z,21.47
2019-01-21T10:38:43.302Z,19.87
2019-01-21T10:41:23.763Z,20.90
2019-01-21T10:44:16.317Z,20.63
2019-01-21T10:46:53.561Z,21.30
2019-01-21T10:49:44.671Z,24.53
2019-01-21T10:52:19.275Z,18.20
2019-01-21T10:55:02.906Z,18.90
2019-01-21T10:58:01.675Z,19.50
2019-01-21T11:00:38.894Z,17.30
2019-01-21T11:03:19.270Z,16.67
2019-01-21T11:06:13.638Z,17.83
2019-01-21T11:08:54.283Z,17.50
2019-01-21T11:11:37.950Z,18.23
2019-01-21T11:14:26.340Z,18.93
2019-01-21T11:17:06.966Z,22.90
2019-01-21T11:20:05.718Z,20.43
2019-01-21T11:22:37.361Z,19.93
2019-01-21T11:25:09.033Z,19.23
2019-01-21T11:27:43.514Z,19.27
2019-01-21T11:30:36.003Z,18.20
2019-01-21T11:33:16.354Z,21.70
2019-01-21T11:36:10.720Z,23.87
2019-01-21T11:38:51.787Z,24.13
2019-01-21T11:41:41.415Z,23.00
2019-01-21T11:44:34.417Z,23.53
2019-01-21T11:47:08.869Z,20.93
2019-01-21T11:50:01.874Z,20.73
2019-01-21T11:52:39.302Z,18.90
2019-01-21T11:55:33.415Z,20.17
2019-01-21T11:58:23.245Z,18.07
2019-01-21T12:01:15.282Z,18.73
2019-01-21T12:03:58.660Z,19.77
2019-01-21T12:06:34.837Z,22.03
2019-01-21T12:09:33.698Z,23.13
2019-01-21T12:12:08.240Z,20.40
2019-01-21T12:14:48.686Z,19.33
2019-01-21T12:17:25.970Z,20.00
2019-01-21T12:20:17.131Z,18.80
2019-01-21T12:23:09.922Z,21.03
2019-01-21T12:25:44.563Z,20.13
2019-01-21T12:28:35.682Z,20.37
2019-01-21T12:31:07.319Z,19.00
2019-01-21T12:33:54.206Z,20.27
2019-01-21T12:36:28.858Z,20.80
2019-01-21T12:39:12.689Z,19.60
2019-01-21T12:41:49.858Z,18.77
2019-01-21T12:44:41.142Z,20.13
2019-01-21T12:47:21.454Z,18.87
2019-01-21T12:50:13.799Z,20.23
2019-01-21T12:52:48.257Z,22.53
2019-01-21T12:55:22.842Z,20.47
2019-01-21T12:58:15.553Z,19.87
2019-01-21T13:01:08.078Z,19.90
2019-01-21T13:03:48.402Z,20.27
2019-01-21T13:06:34.929Z,19.50
2019-01-21T13:09:39.901Z,19.77
2019-01-21T13:12:45.918Z,20.03
2019-01-21T13:15:51.987Z,20.57
2019-01-21T13:18:32.699Z,20.10
2019-01-21T13:21:19.409Z,20.63
2019-01-21T13:23:53.632Z,19.87
2019-01-21T13:26:28.049Z,20.17
2019-01-21T13:29:23.459Z,20.27
2019-01-21T13:32:14.550Z,20.50
2019-01-21T13:35:06.676Z,21.70
2019-01-21T13:37:44.372Z,19.63
2019-01-21T13:40:44.997Z,20.93
2019-01-21T13:43:25.263Z,19.73
2019-01-21T13:46:16.591Z,20.37
2019-01-21T13:49:03.254Z,21.93
2019-01-21T13:52:03.876Z,20.10
2019-01-21T13:54:44.233Z,20.10
2019-01-21T13:57:44.472Z,21.37
2019-01-21T14:00:36.997Z,20.07
2019-01-21T14:03:20.850Z,22.90
2019-01-21T14:06:13.574Z,21.47
2019-01-21T14:09:07.749Z,19.60
2019-01-21T14:12:03.389Z,21.73
2019-01-21T14:14:50.050Z,21.07
2019-01-21T14:17:36.333Z,21.20
2019-01-21T14:20:16.823Z,21.17
2019-01-21T14:22:53.177Z,20.90
2019-01-21T14:25:27.645Z,19.63
2019-01-21T14:27:59.314Z,21.17
2019-01-21T14:30:49.290Z,20.13
2019-01-21T14:33:26.677Z,19.73
2019-01-21T14:36:07.278Z,19.37
2019-01-21T14:38:41.735Z,21.07
2019-01-21T14:41:28.155Z,19.57
2019-01-21T14:44:08.640Z,19.10
2019-01-21T14:46:58.502Z,19.13
2019-01-21T14:49:30.173Z,19.53
2019-01-21T14:52:01.845Z,20.07
2019-01-21T14:54:36.330Z,20.20
2019-01-21T14:57:26.102Z,19.60
2019-01-21T15:00:30.534Z,19.77
2019-01-21T15:03:14.354Z,20.97
2019-01-21T15:06:00.957Z,20.47
2019-01-21T15:08:32.726Z,34.97
2019-01-21T15:11:15.971Z,20.30
2019-01-21T15:13:53.669Z,18.77
2019-01-21T15:16:47.793Z,20.50
2019-01-21T15:19:22.100Z,24.63
2019-01-21T15:21:53.712Z,23.07
2019-01-21T15:24:25.418Z,23.77
2019-01-21T15:27:14.973Z,19.40
2019-01-21T15:29:49.406Z,20.60
2019-01-21T15:32:26.598Z,20.90
2019-01-21T15:35:49.182Z,22.00
2019-01-21T15:38:55.144Z,22.03
2019-01-21T15:41:32.498Z,20.03
2019-01-21T15:44:04.181Z,20.23
2019-01-21T15:46:54.027Z,21.47
2019-01-21T15:49:34.797Z,20.50
2019-01-21T15:52:06.445Z,19.83
2019-01-21T15:54:40.793Z,20.60
2019-01-21T15:57:12.433Z,20.90
2019-01-21T16:00:01.206Z,21.63
2019-01-21T16:02:35.818Z,21.07
2019-01-21T16:05:10.028Z,21.83
2019-01-21T16:07:44.713Z,21.50
2019-01-21T16:10:19.143Z,20.40
2019-01-21T16:13:07.338Z,21.40
2019-01-21T16:15:44.520Z,24.73
2019-01-21T16:18:25.255Z,22.57
2019-01-21T16:21:02.533Z,24.13
2019-01-21T16:24:02.790Z,27.17
2019-01-21T16:26:34.507Z,26.17
2019-01-21T16:29:08.986Z,23.17
2019-01-21T16:31:38.810Z,34.80
2019-01-21T16:34:33.076Z,26.07
2019-01-21T16:37:10.805Z,29.47
2019-01-21T16:40:00.369Z,28.97
2019-01-21T16:42:28.059Z,32.43
2019-01-21T16:44:56.618Z,35.30
2019-01-21T16:47:26.561Z,35.17
2019-01-21T16:49:55.254Z,28.77
2019-01-21T16:52:23.844Z,29.80
2019-01-21T16:54:52.489Z,35.10
2019-01-21T16:57:21.089Z,35.93
2019-01-21T16:59:49.794Z,36.40
2019-01-21T17:02:18.666Z,36.68
2019-01-21T17:04:47.459Z,32.23
2019-01-21T17:07:15.997Z,32.87
2019-01-21T17:09:44.566Z,31.83
2019-01-21T17:12:13.229Z,27.10
2019-01-21T17:14:41.854Z,30.33
2019-01-21T17:19:39.217Z,29.30
2019-01-21T17:22:07.792Z,29.97
2019-01-21T17:24:36.467Z,30.67
2019-01-21T17:27:05.315Z,30.37
2019-01-21T17:29:33.893Z,33.47
2019-01-21T17:32:02.474Z,31.42
2019-01-21T17:34:31.072Z,27.90
2019-01-21T17:36:59.709Z,28.00
2019-01-21T17:39:28.326Z,23.45
2019-01-21T17:41:57.018Z,25.97
2019-01-21T17:44:25.623Z,24.27
2019-01-21T17:46:54.261Z,25.10
2019-01-21T17:49:22.854Z,25.37
2019-01-21T17:51:51.493Z,35.30
2019-01-21T17:54:20.161Z,34.63
2019-01-21T17:56:48.885Z,34.27
2019-01-21T17:59:17.572Z,39.00
2019-01-21T18:01:46.138Z,42.62
2019-01-21T18:04:14.742Z,42.20
2019-01-21T18:06:43.392Z,38.48
2019-01-21T18:09:12.140Z,35.23
2019-01-21T18:11:41.476Z,32.70
2019-01-21T18:14:10.149Z,35.65
2019-01-21T18:16:38.819Z,42.78
2019-01-21T18:19:07.459Z,51.08
2019-01-21T18:21:40.153Z,47.58
2019-01-21T18:24:06.480Z,44.65
2019-01-21T18:26:35.089Z,46.08
2019-01-21T18:29:03.733Z,43.42
2019-01-21T18:31:32.336Z,42.83
2019-01-21T18:34:00.910Z,47.27
2019-01-21T18:36:29.579Z,49.10
2019-01-21T18:38:58.225Z,46.23
2019-01-21T18:41:26.832Z,37.98
2019-01-21T18:43:55.401Z,36.08
2019-01-21T18:46:24.009Z,40.10
2019-01-21T18:48:52.646Z,46.23
2019-01-21T18:51:21.250Z,41.20
2019-01-21T18:53:49.830Z,53.55
2019-01-21T18:56:18.447Z,53.15
2019-01-21T18:58:47.020Z,48.45
2019-01-21T19:01:15.622Z,48.35
